Terminal Aerodrome Forecast
Issued by NWS Paducah, KY

Home | Current Version | Previous Version | Text Only | Print | Product List | Glossary On
Versions: 1 2 3 4 5 6 7 8 9 10 11 12 13 14 15
130
FTUS43 KPAH 232323
TAFPAH
TAF
KPAH 232323Z 2400/2424 19005KT P6SM SCT023 BKN300
     FM240300 20008KT P6SM SKC
     FM241400 21012KT P6SM SCT035 SCT080=

USA.gov is the U.S. government's official web portal to all federal, state and local government web resources and services.